Time;durP1;ratioP1;P1;durP2;ratioP2;P2;SDS_P1;SDS_P2;PMS_P1;PMS_P2;Temp;Humidity;BMP_temperature;BMP_pressure;BME280_temperature;BME280_humidity;BME280_pressure;Samples;Min_cycle;Max_cycle;Signal;HPM_P1;HPM_P2
2022/02/25 00:00:09;;;;;;;10.20;3.58;;;3.10;99.90;;;;;;5037151;28;20028;-73
2022/02/25 00:02:35;;;;;;;12.23;3.05;;;3.10;99.90;;;;;;5033695;28;20037;-73
2022/02/25 00:05:01;;;;;;;14.05;3.20;;;3.20;99.90;;;;;;5034842;28;20479;-73
2022/02/25 00:07:27;;;;;;;12.90;3.40;;;3.10;99.90;;;;;;5017023;28;20025;-73
2022/02/25 00:09:53;;;;;;;14.13;3.42;;;3.10;99.90;;;;;;5036332;28;20037;-73
2022/02/25 00:12:19;;;;;;;13.07;3.35;;;3.20;99.90;;;;;;5039244;28;20025;-73
2022/02/25 00:14:45;;;;;;;14.13;3.53;;;3.20;99.90;;;;;;5037396;28;20048;-73
2022/02/25 00:17:12;;;;;;;17.00;3.20;;;3.20;99.90;;;;;;5032698;28;20040;-73
2022/02/25 00:19:40;;;;;;;12.95;3.42;;;3.20;99.90;;;;;;5033333;28;20029;-73
2022/02/25 00:22:08;;;;;;;17.83;3.65;;;3.30;99.90;;;;;;5034854;28;20122;-74
2022/02/25 00:24:33;;;;;;;21.45;3.20;;;3.30;99.90;;;;;;5034989;28;20025;-74
2022/02/25 00:26:59;;;;;;;11.27;3.28;;;3.30;99.90;;;;;;5036893;28;20531;-73
2022/02/25 00:29:25;;;;;;;20.48;3.00;;;3.40;99.90;;;;;;5035970;28;20025;-72
2022/02/25 00:31:51;;;;;;;15.93;3.15;;;3.30;99.90;;;;;;5034103;28;20446;-72
2022/02/25 00:34:17;;;;;;;14.90;3.35;;;3.30;99.90;;;;;;5032809;28;20032;-74
2022/02/25 00:36:43;;;;;;;10.00;3.17;;;3.20;99.90;;;;;;5035354;28;20041;-74
2022/02/25 00:39:08;;;;;;;17.40;3.92;;;3.20;99.90;;;;;;5037501;28;20040;-74
2022/02/25 00:41:34;;;;;;;20.17;3.30;;;3.20;99.90;;;;;;5036667;28;20045;-74
2022/02/25 00:44:00;;;;;;;14.90;3.60;;;3.20;99.90;;;;;;5034477;28;20025;-73
2022/02/25 00:46:25;;;;;;;15.25;3.55;;;3.20;99.90;;;;;;5037070;28;20506;-72
2022/02/25 00:48:51;;;;;;;14.50;3.17;;;3.20;99.90;;;;;;5032118;28;20124;-72
2022/02/25 00:51:18;;;;;;;17.13;3.50;;;3.20;99.90;;;;;;5032420;28;20032;-74
2022/02/25 00:53:44;;;;;;;14.13;2.55;;;3.20;99.90;;;;;;5036628;28;20025;-72
2022/02/25 00:56:10;;;;;;;22.13;3.45;;;3.20;99.90;;;;;;5034157;28;20037;-74
2022/02/25 00:58:36;;;;;;;15.60;3.10;;;3.20;99.90;;;;;;5034501;28;20047;-73
2022/02/25 01:01:02;;;;;;;14.98;3.83;;;3.10;99.90;;;;;;5034739;28;20029;-73
2022/02/25 01:03:29;;;;;;;17.95;3.35;;;3.10;99.90;;;;;;5041649;28;20033;-73
2022/02/25 01:05:55;;;;;;;15.25;2.70;;;3.10;99.90;;;;;;5029852;28;20039;-74
2022/02/25 01:08:21;;;;;;;11.00;2.70;;;3.10;99.90;;;;;;5033618;28;20037;-74
2022/02/25 01:10:46;;;;;;;14.65;2.75;;;3.10;99.90;;;;;;5032549;28;20474;-72
2022/02/25 01:13:12;;;;;;;15.38;2.70;;;3.10;99.90;;;;;;5035589;28;20076;-72
2022/02/25 01:15:38;;;;;;;8.77;2.33;;;3.20;99.90;;;;;;5036095;28;20024;-72
2022/02/25 01:18:06;;;;;;;13.80;2.83;;;3.20;99.90;;;;;;5034033;28;20136;-72
2022/02/25 01:20:32;;;;;;;18.38;2.78;;;3.10;99.90;;;;;;5044080;28;20040;-72
2022/02/25 01:22:58;;;;;;;15.63;2.50;;;3.10;99.90;;;;;;5022347;28;20399;-72
2022/02/25 01:25:23;;;;;;;10.20;2.17;;;3.10;99.90;;;;;;5039408;28;20509;-72
2022/02/25 01:27:50;;;;;;;11.63;2.92;;;3.20;99.90;;;;;;5037529;28;20450;-71
2022/02/25 01:30:16;;;;;;;10.93;3.00;;;3.10;99.90;;;;;;5033724;28;20506;-72
2022/02/25 01:32:41;;;;;;;18.63;2.60;;;3.10;99.90;;;;;;5032436;28;20033;-72
2022/02/25 01:35:08;;;;;;;18.90;3.83;;;3.10;99.90;;;;;;5034886;28;20022;-72
2022/02/25 01:37:33;;;;;;;12.57;2.28;;;3.10;99.90;;;;;;5036177;28;20025;-72
2022/02/25 01:39:59;;;;;;;14.50;2.97;;;3.00;99.90;;;;;;5033266;28;20051;-72
2022/02/25 01:42:25;;;;;;;11.02;2.40;;;3.10;99.90;;;;;;5033599;28;20385;-72
2022/02/25 01:44:51;;;;;;;12.68;3.03;;;3.10;99.90;;;;;;5033450;28;20030;-72
2022/02/25 01:47:16;;;;;;;10.93;2.00;;;3.10;99.90;;;;;;5036392;28;20041;-72
2022/02/25 01:49:43;;;;;;;18.88;2.78;;;3.10;99.90;;;;;;5029342;28;20037;-73
2022/02/25 01:52:14;;;;;;;15.65;2.30;;;3.10;99.90;;;;;;5031151;28;20029;-72
2022/02/25 01:54:44;;;;;;;;;;;3.10;99.90;;;;;;5035586;28;20395;-73
2022/02/25 01:57:12;;;;;;;15.48;3.30;;;3.10;99.90;;;;;;5037389;28;19919;-73
2022/02/25 01:59:39;;;;;;;16.75;2.40;;;3.10;99.90;;;;;;5019438;28;20057;-73
2022/02/25 02:02:06;;;;;;;14.48;2.20;;;3.10;99.90;;;;;;5040530;28;20394;-73
2022/02/25 02:04:32;;;;;;;10.55;2.60;;;3.00;99.90;;;;;;5038254;28;20021;-73
2022/02/25 02:06:59;;;;;;;15.77;2.88;;;3.00;99.90;;;;;;5020771;28;20253;-73
2022/02/25 02:09:24;;;;;;;17.05;3.55;;;3.10;99.90;;;;;;5056919;28;20368;-72
2022/02/25 02:11:52;;;;;;;13.95;2.75;;;3.10;99.90;;;;;;5036570;28;20075;-73
2022/02/25 02:14:20;;;;;;;16.23;2.50;;;3.10;99.90;;;;;;5036645;28;20028;-73
2022/02/25 02:16:48;;;;;;;15.05;2.45;;;3.10;99.90;;;;;;5036129;28;20108;-73
2022/02/25 02:19:15;;;;;;;10.18;2.33;;;3.10;99.90;;;;;;5037904;28;20064;-72
2022/02/25 02:21:51;;;;;;;15.73;2.63;;;3.10;99.90;;;;;;5035835;28;20026;-73
2022/02/25 02:24:20;;;;;;;15.02;3.05;;;3.10;99.90;;;;;;5039831;28;20040;-73
2022/02/25 02:26:46;;;;;;;15.88;2.75;;;3.10;99.90;;;;;;5035379;28;20028;-73
2022/02/25 02:29:12;;;;;;;23.52;3.17;;;3.10;99.90;;;;;;5037617;28;20509;-72
2022/02/25 02:31:38;;;;;;;17.08;2.55;;;3.10;99.90;;;;;;5037069;28;20026;-72
2022/02/25 02:34:07;;;;;;;16.92;2.67;;;3.10;99.90;;;;;;5039517;28;20384;-72
2022/02/25 02:36:33;;;;;;;20.17;3.70;;;3.10;99.90;;;;;;5038289;28;20053;-72
2022/02/25 02:38:59;;;;;;;12.70;2.30;;;3.10;99.90;;;;;;5040985;28;20065;-74
2022/02/25 02:41:25;;;;;;;16.00;2.50;;;3.10;99.90;;;;;;5041028;28;20080;-73
2022/02/25 02:43:52;;;;;;;14.25;2.95;;;3.10;99.90;;;;;;5044062;28;20549;-73
2022/02/25 02:46:17;;;;;;;19.55;2.80;;;3.00;99.90;;;;;;5036145;28;20033;-72
2022/02/25 02:48:46;;;;;;;18.50;2.75;;;3.00;99.90;;;;;;5037186;28;20052;-73
2022/02/25 02:51:12;;;;;;;12.82;2.45;;;3.00;99.90;;;;;;5036158;28;20484;-73
2022/02/25 02:53:38;;;;;;;11.68;2.50;;;3.10;99.90;;;;;;5038336;28;20061;-72
2022/02/25 02:56:05;;;;;;;10.55;2.45;;;3.20;99.90;;;;;;5038134;28;20122;-73
2022/02/25 02:58:31;;;;;;;13.70;2.50;;;3.20;99.90;;;;;;5039963;28;20022;-73
2022/02/25 03:00:56;;;;;;;15.73;2.78;;;3.20;99.90;;;;;;5033415;28;20123;-73
2022/02/25 03:03:23;;;;;;;10.88;2.08;;;3.30;99.90;;;;;;5019116;28;20101;-73
2022/02/25 03:05:49;;;;;;;14.38;3.13;;;3.30;99.90;;;;;;5037607;28;20025;-74
2022/02/25 03:08:16;;;;;;;12.27;2.53;;;3.30;99.90;;;;;;5038377;28;20447;-73
2022/02/25 03:10:44;;;;;;;17.00;2.75;;;3.30;99.90;;;;;;5018777;28;20052;-73
2022/02/25 03:13:14;;;;;;;16.55;2.47;;;3.20;99.90;;;;;;5037416;28;20041;-73
2022/02/25 03:15:40;;;;;;;12.85;2.33;;;3.20;99.90;;;;;;5036270;28;20127;-73
2022/02/25 03:18:06;;;;;;;7.25;2.17;;;3.20;99.90;;;;;;5036577;28;20300;-73
2022/02/25 03:20:32;;;;;;;15.35;2.60;;;3.20;99.90;;;;;;5033532;28;20556;-73
2022/02/25 03:22:58;;;;;;;12.25;2.95;;;3.20;99.90;;;;;;5035714;28;20503;-73
2022/02/25 03:25:24;;;;;;;10.15;2.42;;;3.30;99.90;;;;;;5038576;28;20068;-74
2022/02/25 03:27:49;;;;;;;13.35;2.80;;;3.30;99.90;;;;;;5039352;28;20368;-73
2022/02/25 03:30:16;;;;;;;13.20;3.85;;;3.40;99.90;;;;;;5039014;28;20031;-73
2022/02/25 03:32:43;;;;;;;13.25;2.20;;;3.30;99.90;;;;;;5037181;28;20034;-73
2022/02/25 03:35:10;;;;;;;10.00;2.38;;;3.30;99.90;;;;;;5035373;28;20029;-73
2022/02/25 03:37:36;;;;;;;13.25;2.78;;;3.30;99.90;;;;;;5040870;28;20044;-73
2022/02/25 03:40:03;;;;;;;20.92;2.47;;;3.30;99.90;;;;;;5020550;28;20033;-72
2022/02/25 03:42:29;;;;;;;20.20;2.60;;;3.20;99.90;;;;;;5033302;28;20020;-73
2022/02/25 03:44:55;;;;;;;10.85;2.95;;;3.30;99.90;;;;;;5018717;28;20509;-73
2022/02/25 03:47:23;;;;;;;7.55;1.75;;;3.40;99.90;;;;;;5039342;28;20467;-73
2022/02/25 03:49:49;;;;;;;13.13;2.58;;;3.40;99.90;;;;;;5035989;28;20040;-73
2022/02/25 03:52:18;;;;;;;11.77;2.67;;;3.40;99.90;;;;;;5035237;28;20061;-73
2022/02/25 03:54:44;;;;;;;9.40;2.38;;;3.40;99.90;;;;;;5037498;28;20029;-74
2022/02/25 03:57:10;;;;;;;10.40;2.15;;;3.40;99.90;;;;;;5035404;28;20120;-73
2022/02/25 03:59:38;;;;;;;15.20;2.75;;;3.40;99.90;;;;;;5038269;28;20554;-73
2022/02/25 04:02:04;;;;;;;6.97;2.13;;;3.50;99.90;;;;;;5034762;28;20177;-73
2022/02/25 04:04:31;;;;;;;19.20;3.38;;;3.50;99.90;;;;;;5043753;28;20044;-74
2022/02/25 04:06:56;;;;;;;14.95;2.50;;;3.50;99.90;;;;;;5016164;28;20525;-73
2022/02/25 04:09:22;;;;;;;12.65;2.97;;;3.50;99.90;;;;;;5035371;28;20025;-73
2022/02/25 04:11:50;;;;;;;14.02;2.13;;;3.50;99.90;;;;;;5036877;28;20095;-74
2022/02/25 04:14:20;;;;;;;9.07;2.33;;;3.60;99.90;;;;;;5035953;28;20515;-74
2022/02/25 04:16:47;;;;;;;11.10;2.63;;;3.50;99.90;;;;;;5015705;28;20029;-73
2022/02/25 04:19:13;;;;;;;11.57;2.42;;;3.50;99.90;;;;;;5033412;28;20040;-74
2022/02/25 04:21:38;;;;;;;15.43;3.85;;;3.50;99.90;;;;;;5034816;28;20025;-73
2022/02/25 04:24:05;;;;;;;11.48;3.25;;;3.50;99.90;;;;;;5032790;28;20064;-73
2022/02/25 04:26:31;;;;;;;13.60;2.15;;;3.50;99.90;;;;;;5035807;28;20052;-73
2022/02/25 04:28:57;;;;;;;9.50;2.40;;;3.50;99.90;;;;;;5036046;28;20399;-73
2022/02/25 04:31:23;;;;;;;11.65;2.97;;;3.40;99.90;;;;;;5036677;28;20108;-73
2022/02/25 04:33:50;;;;;;;15.60;2.30;;;3.40;99.90;;;;;;5017957;28;20036;-73
2022/02/25 04:36:17;;;;;;;14.52;2.45;;;3.40;99.90;;;;;;5034815;28;20087;-73
2022/02/25 04:38:43;;;;;;;9.65;2.10;;;3.30;99.90;;;;;;5037231;28;20033;-73
2022/02/25 04:41:08;;;;;;;9.40;2.40;;;3.40;99.90;;;;;;5035535;28;20574;-73
2022/02/25 04:43:34;;;;;;;14.18;2.50;;;3.40;99.90;;;;;;5034742;28;20025;-73
2022/02/25 04:46:00;;;;;;;14.10;3.63;;;3.40;99.90;;;;;;5037659;28;20095;-73
2022/02/25 04:48:26;;;;;;;13.57;2.10;;;3.40;99.90;;;;;;5033958;28;20495;-73
2022/02/25 04:50:54;;;;;;;9.70;2.15;;;3.50;99.90;;;;;;5033492;28;20024;-73
2022/02/25 04:53:20;;;;;;;12.05;2.47;;;3.50;99.90;;;;;;5034954;28;20021;-73
2022/02/25 04:55:46;;;;;;;13.93;2.28;;;3.50;99.90;;;;;;5038272;28;20552;-73
2022/02/25 04:58:19;;;;;;;11.23;1.85;;;3.50;99.90;;;;;;5035787;28;20036;-73
2022/02/25 05:00:45;;;;;;;9.65;2.75;;;3.40;99.90;;;;;;5016316;28;20426;-73
2022/02/25 05:03:11;;;;;;;9.07;2.35;;;3.50;99.90;;;;;;5032801;28;20086;-73
2022/02/25 05:05:37;;;;;;;9.15;2.72;;;3.40;99.90;;;;;;5034560;28;20025;-71
2022/02/25 05:08:03;;;;;;;9.77;1.95;;;3.30;99.90;;;;;;5032297;28;20483;-73
2022/02/25 05:10:30;;;;;;;10.77;2.00;;;3.30;99.90;;;;;;5036146;28;20123;-74
2022/02/25 05:12:56;;;;;;;12.02;2.42;;;3.40;99.90;;;;;;5035251;28;20567;-74
2022/02/25 05:20:52;;;;;;;14.43;2.63;;;3.30;99.90;;;;;;5033566;28;20072;-74
2022/02/25 05:23:19;;;;;;;10.43;2.42;;;3.30;99.90;;;;;;5031361;28;20029;-74
2022/02/25 05:25:45;;;;;;;14.00;2.20;;;3.40;99.90;;;;;;5034189;28;20030;-74
2022/02/25 05:28:11;;;;;;;16.33;2.20;;;3.40;99.90;;;;;;5034170;28;20047;-74
2022/02/25 05:30:37;;;;;;;9.95;2.22;;;3.40;99.90;;;;;;5036382;28;20017;-74
2022/02/25 05:33:03;;;;;;;8.57;2.20;;;3.50;99.90;;;;;;5035562;28;20021;-74
2022/02/25 05:35:29;;;;;;;6.70;1.98;;;3.50;99.90;;;;;;5033918;28;20502;-74
2022/02/25 05:37:57;;;;;;;8.02;2.05;;;3.60;99.90;;;;;;5033299;28;20374;-74
2022/02/25 05:40:23;;;;;;;8.35;2.17;;;3.50;99.90;;;;;;5035871;28;20063;-73
2022/02/25 05:42:49;;;;;;;13.18;2.17;;;3.60;99.90;;;;;;5016173;28;20527;-75
2022/02/25 05:45:16;;;;;;;6.45;1.70;;;3.60;99.90;;;;;;5035712;28;20033;-74
2022/02/25 05:47:42;;;;;;;10.30;2.30;;;3.60;99.90;;;;;;5016379;28;20423;-74
2022/02/25 05:50:14;;;;;;;9.02;1.60;;;3.60;99.90;;;;;;5032748;28;20563;-75
2022/02/25 05:52:41;;;;;;;14.20;1.83;;;3.60;99.90;;;;;;5033249;28;20038;-74
2022/02/25 05:55:07;;;;;;;11.57;1.75;;;3.70;99.90;;;;;;5035138;28;20462;-75
2022/02/25 05:57:33;;;;;;;15.40;2.13;;;3.70;99.90;;;;;;5032838;28;20032;-75
2022/02/25 06:00:04;;;;;;;15.20;2.13;;;3.70;99.90;;;;;;5034711;28;20049;-74
2022/02/25 06:02:29;;;;;;;10.23;2.47;;;3.70;99.90;;;;;;5046787;28;20068;-75
2022/02/25 06:04:55;;;;;;;8.05;1.98;;;3.70;99.90;;;;;;5036280;28;20546;-76
2022/02/25 06:07:20;;;;;;;18.95;2.40;;;3.80;99.90;;;;;;5039044;28;20052;-75
2022/02/25 06:09:46;;;;;;;15.48;2.30;;;3.80;99.90;;;;;;5045813;28;20053;-73
2022/02/25 06:12:12;;;;;;;9.60;1.98;;;3.80;99.90;;;;;;5032046;28;20038;-75
2022/02/25 06:14:37;;;;;;;10.20;2.03;;;3.80;99.90;;;;;;5032069;28;20022;-76
2022/02/25 06:17:07;;;;;;;10.10;1.95;;;3.90;99.90;;;;;;5032738;28;20033;-75
2022/02/25 06:19:32;;;;;;;12.18;2.22;;;3.80;99.90;;;;;;5035296;28;20226;-74
2022/02/25 06:22:01;;;;;;;13.68;2.28;;;3.80;99.90;;;;;;5053406;28;20172;-75
2022/02/25 06:24:27;;;;;;;8.20;2.03;;;3.80;99.90;;;;;;5028832;28;20028;-78
2022/02/25 06:26:53;;;;;;;14.23;3.33;;;3.70;99.90;;;;;;5017359;28;20040;-74
2022/02/25 06:29:19;;;;;;;15.30;2.25;;;3.70;99.90;;;;;;5031276;28;20518;-75
2022/02/25 06:31:47;;;;;;;9.93;2.28;;;3.70;99.90;;;;;;5011361;28;20256;-74
2022/02/25 06:34:13;;;;;;;11.00;2.65;;;3.70;99.90;;;;;;5033344;28;20148;-74
2022/02/25 06:36:39;;;;;;;10.85;2.30;;;3.70;99.90;;;;;;5035555;28;20112;-74
2022/02/25 06:39:05;;;;;;;12.32;2.33;;;3.70;99.90;;;;;;5034793;28;20518;-74
2022/02/25 06:41:31;;;;;;;12.15;2.47;;;3.70;99.90;;;;;;5033931;28;20021;-73
2022/02/25 06:43:57;;;;;;;11.55;3.15;;;3.70;99.90;;;;;;5037268;28;20040;-73
2022/02/25 06:46:24;;;;;;;9.50;2.50;;;3.70;99.90;;;;;;5021349;28;20026;-74
2022/02/25 06:48:50;;;;;;;13.25;3.15;;;3.70;99.90;;;;;;5035702;28;20601;-73
2022/02/25 06:51:16;;;;;;;15.48;3.15;;;3.80;99.90;;;;;;5036518;28;20380;-74
2022/02/25 06:53:42;;;;;;;14.52;3.00;;;3.80;99.90;;;;;;5023790;28;20028;-73
2022/02/25 06:56:08;;;;;;;9.93;3.15;;;3.90;99.90;;;;;;5039739;28;20071;-74
2022/02/25 06:58:34;;;;;;;11.38;2.97;;;3.90;99.90;;;;;;5038207;28;20044;-74
2022/02/25 07:01:01;;;;;;;14.95;4.35;;;4.00;99.90;;;;;;5041139;28;20502;-74
2022/02/25 07:03:27;;;;;;;14.65;3.22;;;4.00;99.90;;;;;;5038546;28;20037;-74
2022/02/25 07:05:53;;;;;;;11.48;3.03;;;4.00;99.90;;;;;;5039243;28;20036;-74
2022/02/25 07:08:21;;;;;;;15.45;2.95;;;4.00;99.90;;;;;;5036195;28;20040;-73
2022/02/25 07:10:47;;;;;;;11.52;3.10;;;4.00;99.90;;;;;;5038562;28;20030;-74
2022/02/25 07:13:13;;;;;;;15.50;3.08;;;4.00;99.90;;;;;;5036609;28;20111;-74
2022/02/25 07:15:40;;;;;;;9.95;2.95;;;4.00;99.90;;;;;;5020306;28;20029;-74
2022/02/25 07:18:06;;;;;;;16.55;3.35;;;4.00;99.90;;;;;;5033246;28;20033;-73
2022/02/25 07:20:32;;;;;;;16.08;3.53;;;4.00;99.90;;;;;;5038311;28;20025;-74
2022/02/25 07:22:59;;;;;;;13.75;3.03;;;4.00;99.90;;;;;;5043094;28;20022;-74
2022/02/25 07:25:26;;;;;;;13.38;3.30;;;4.00;99.90;;;;;;5035553;28;20059;-74
2022/02/25 07:27:52;;;;;;;18.65;3.33;;;4.10;99.90;;;;;;5039071;28;20140;-74
2022/02/25 07:30:19;;;;;;;13.18;2.42;;;4.10;99.90;;;;;;5020343;28;20051;-72
2022/02/25 07:32:47;;;;;;;16.05;3.00;;;4.00;99.90;;;;;;5037567;28;20033;-73
2022/02/25 07:35:14;;;;;;;16.50;3.47;;;4.00;99.90;;;;;;5038866;28;20422;-72
2022/02/25 07:37:43;;;;;;;10.40;2.58;;;4.00;99.90;;;;;;5039273;28;20040;-73
2022/02/25 07:40:13;;;;;;;16.63;3.30;;;4.00;99.90;;;;;;5038156;28;20017;-72
2022/02/25 07:42:40;;;;;;;15.40;3.30;;;4.10;99.90;;;;;;5039232;28;20025;-74
2022/02/25 07:45:07;;;;;;;14.57;2.60;;;4.10;99.90;;;;;;5016994;28;20363;-73
2022/02/25 07:47:34;;;;;;;16.02;2.63;;;4.20;99.90;;;;;;5043158;28;20029;-73
2022/02/25 07:50:00;;;;;;;12.20;3.05;;;4.30;99.90;;;;;;5054667;28;20032;-74
2022/02/25 07:52:25;;;;;;;12.45;2.70;;;4.30;99.90;;;;;;5020581;28;20339;-73
2022/02/25 07:54:51;;;;;;;12.82;2.78;;;4.50;99.90;;;;;;5037125;28;20029;-74
2022/02/25 07:57:18;;;;;;;11.68;2.38;;;4.50;99.90;;;;;;5038662;28;20071;-72
2022/02/25 07:59:45;;;;;;;13.50;2.60;;;4.60;99.90;;;;;;5037439;28;20040;-72
2022/02/25 08:02:11;;;;;;;13.73;2.97;;;4.60;99.90;;;;;;5034119;28;20115;-73
2022/02/25 08:04:36;;;;;;;10.55;2.65;;;4.60;99.90;;;;;;5017072;28;20621;-73
2022/02/25 08:07:03;;;;;;;15.98;3.65;;;4.60;99.90;;;;;;5039975;28;20117;-74
2022/02/25 08:09:30;;;;;;;11.07;2.75;;;4.60;99.90;;;;;;5042961;28;20094;-74
2022/02/25 08:11:56;;;;;;;15.40;3.10;;;4.60;99.90;;;;;;5037022;28;20036;-72
2022/02/25 08:14:22;;;;;;;16.52;2.97;;;4.50;99.90;;;;;;5032184;28;20022;-72
2022/02/25 08:16:48;;;;;;;20.63;3.72;;;4.50;99.90;;;;;;5035218;28;20438;-71
2022/02/25 08:19:14;;;;;;;10.35;2.65;;;4.40;99.90;;;;;;5032348;28;20468;-72
2022/02/25 08:21:43;;;;;;;15.45;3.00;;;4.40;99.90;;;;;;5034911;28;20032;-72
2022/02/25 08:24:09;;;;;;;12.85;3.60;;;4.40;99.90;;;;;;5017957;28;20390;-73
2022/02/25 08:26:34;;;;;;;14.07;3.92;;;4.40;99.90;;;;;;5021335;28;20052;-73
2022/02/25 08:29:01;;;;;;;14.55;3.38;;;4.40;99.90;;;;;;5055278;28;20021;-72
2022/02/25 08:31:27;;;;;;;9.82;3.70;;;4.40;99.90;;;;;;5039402;28;20521;-72
2022/02/25 08:33:53;;;;;;;10.07;3.55;;;4.30;99.90;;;;;;5038241;28;20033;-72
2022/02/25 08:36:18;;;;;;;21.13;3.92;;;4.30;99.90;;;;;;5032011;28;20025;-73
2022/02/25 08:38:45;;;;;;;13.77;4.53;;;4.30;99.90;;;;;;5034937;28;20033;-74
2022/02/25 08:41:10;;;;;;;15.80;4.97;;;4.30;99.90;;;;;;5032535;28;20037;-72
2022/02/25 08:43:36;;;;;;;15.68;4.50;;;4.20;99.90;;;;;;5018948;28;20032;-73
2022/02/25 08:46:02;;;;;;;22.85;4.95;;;4.20;99.90;;;;;;5033583;28;20021;-74
2022/02/25 08:48:30;;;;;;;12.60;5.15;;;4.20;99.90;;;;;;5032108;28;20419;-72
2022/02/25 08:50:58;;;;;;;19.13;5.13;;;4.20;99.90;;;;;;5033898;28;20052;-72
2022/02/25 08:53:24;;;;;;;15.85;5.40;;;4.20;99.90;;;;;;5034571;28;20021;-74
2022/02/25 08:55:51;;;;;;;19.70;6.35;;;4.20;99.90;;;;;;5038050;28;20503;-73
2022/02/25 08:58:17;;;;;;;18.95;5.57;;;4.20;99.90;;;;;;5016824;28;20499;-73
2022/02/25 09:00:46;;;;;;;10.10;4.95;;;4.10;99.90;;;;;;5032498;28;20508;-73
2022/02/25 09:03:14;;;;;;;16.10;5.93;;;4.20;99.90;;;;;;5018903;28;20051;-73
2022/02/25 09:05:40;;;;;;;15.18;5.55;;;4.20;99.90;;;;;;5035036;28;20077;-74
2022/02/25 09:08:09;;;;;;;16.65;5.95;;;4.20;99.90;;;;;;5033305;28;20886;-72
2022/02/25 09:10:36;;;;;;;13.88;5.63;;;4.10;99.90;;;;;;5036546;28;20033;-73
2022/02/25 09:13:04;;;;;;;13.57;6.32;;;4.20;99.90;;;;;;5018296;28;20140;-73
2022/02/25 09:15:30;;;;;;;13.02;6.00;;;4.20;99.90;;;;;;5016381;28;20083;-73
2022/02/25 09:17:58;;;;;;;15.05;5.88;;;4.10;99.90;;;;;;5033603;28;20021;-71
2022/02/25 09:20:28;;;;;;;16.15;5.70;;;4.20;99.90;;;;;;5037775;28;20021;-72
2022/02/25 09:22:58;;;;;;;13.15;4.88;;;4.20;99.90;;;;;;5048894;28;20017;-71
2022/02/25 09:25:27;;;;;;;14.95;5.55;;;4.30;99.90;;;;;;5036074;28;20025;-71
2022/02/25 09:27:53;;;;;;;22.23;6.05;;;4.30;99.90;;;;;;5035603;28;20033;-73
2022/02/25 09:30:19;;;;;;;12.88;5.32;;;4.40;99.90;;;;;;5034879;28;20075;-71
2022/02/25 09:32:46;;;;;;;17.85;5.70;;;4.30;99.90;;;;;;5035856;28;20044;-70
2022/02/25 09:35:12;;;;;;;10.32;5.53;;;4.40;99.90;;;;;;5035849;28;20028;-71
2022/02/25 09:37:38;;;;;;;18.75;6.63;;;4.50;99.90;;;;;;5019340;28;20018;-72
2022/02/25 09:40:07;;;;;;;11.55;5.10;;;4.50;99.90;;;;;;5035248;28;20044;-71
2022/02/25 09:42:38;;;;;;;23.23;6.13;;;4.50;99.90;;;;;;5032711;28;20111;-71
2022/02/25 09:45:05;;;;;;;19.48;4.97;;;4.50;99.90;;;;;;5032782;28;20083;-70
2022/02/25 09:47:35;;;;;;;15.70;5.43;;;4.50;99.90;;;;;;5035091;28;20079;-72
2022/02/25 09:50:02;;;;;;;14.55;5.70;;;4.50;99.90;;;;;;5033610;28;20033;-71
2022/02/25 09:52:29;;;;;;;11.77;5.47;;;4.50;99.90;;;;;;5035890;28;20032;-71
2022/02/25 09:54:54;;;;;;;16.70;5.60;;;4.40;99.90;;;;;;5036228;28;20513;-71
2022/02/25 09:57:20;;;;;;;17.70;5.82;;;4.50;99.90;;;;;;5033648;28;20032;-71
2022/02/25 09:59:46;;;;;;;13.88;5.35;;;4.50;99.90;;;;;;5034605;28;20494;-71
2022/02/25 10:02:12;;;;;;;11.02;5.47;;;4.50;99.90;;;;;;5035508;28;20101;-72
2022/02/25 10:04:38;;;;;;;12.55;4.75;;;4.50;99.90;;;;;;5032245;28;20030;-72
2022/02/25 10:07:25;;;;;;;11.75;5.25;;;4.40;99.90;;;;;;5034384;28;20044;-72
2022/02/25 10:09:54;;;;;;;13.48;5.30;;;4.50;99.90;;;;;;5033114;28;20494;-71
2022/02/25 10:12:22;;;;;;;14.95;5.63;;;4.50;99.90;;;;;;5029693;28;20095;-73
2022/02/25 10:14:50;;;;;;;17.75;6.40;;;4.60;99.90;;;;;;5031437;28;20025;-71
2022/02/25 10:17:23;;;;;;;14.60;6.63;;;4.60;99.90;;;;;;5038049;28;20414;-72
2022/02/25 10:19:54;;;;;;;18.60;6.70;;;4.60;99.90;;;;;;5038033;28;20498;-71
2022/02/25 10:22:32;;;;;;;18.05;6.50;;;4.60;99.90;;;;;;5036941;28;20112;-71
2022/02/25 10:25:01;;;;;;;18.88;7.45;;;4.60;99.90;;;;;;5037439;28;20021;-72
2022/02/25 10:27:39;;;;;;;16.90;6.93;;;4.60;99.90;;;;;;5036887;28;20613;-73
2022/02/25 10:30:20;;;;;;;15.90;6.55;;;4.50;99.90;;;;;;5032894;28;20064;-72
2022/02/25 10:32:50;;;;;;;16.10;6.90;;;4.40;99.90;;;;;;5036302;28;20375;-73
2022/02/25 10:35:38;;;;;;;10.88;6.13;;;4.30;99.90;;;;;;5044174;28;20036;-72
2022/02/25 10:38:05;;;;;;;13.52;6.38;;;4.20;99.90;;;;;;5040664;28;20028;-72
2022/02/25 10:40:40;;;;;;;19.25;5.90;;;4.10;99.90;;;;;;5037402;28;20363;-73
2022/02/25 10:43:17;;;;;;;19.92;6.85;;;4.00;99.90;;;;;;5021739;28;20029;-71
2022/02/25 10:45:48;;;;;;;16.42;7.15;;;3.90;99.90;;;;;;5037305;28;20510;-71
2022/02/25 10:48:16;;;;;;;14.40;7.10;;;3.90;99.90;;;;;;5030374;28;20110;-72
2022/02/25 10:50:55;;;;;;;16.08;7.15;;;3.90;99.90;;;;;;5049744;28;20079;-71
2022/02/25 10:53:43;;;;;;;16.05;7.65;;;3.90;99.90;;;;;;5040158;28;20515;-72
2022/02/25 10:56:14;;;;;;;16.13;6.15;;;4.20;99.90;;;;;;5039447;28;20064;-71
2022/02/25 10:58:45;;;;;;;;;;;4.40;99.90;;;;;;5037931;28;20041;-71
2022/02/25 11:01:12;;;;;;;13.00;5.00;;;4.50;99.90;;;;;;5036358;28;20000;-72
2022/02/25 11:03:42;;;;;;;14.20;5.90;;;4.40;99.90;;;;;;5034948;28;20029;-71
2022/02/25 11:06:09;;;;;;;17.20;5.53;;;4.50;99.90;;;;;;5037622;28;20109;-71
2022/02/25 11:08:36;;;;;;;20.45;5.35;;;4.50;99.90;;;;;;5037205;28;20025;-71
2022/02/25 11:11:03;;;;;;;14.40;4.97;;;4.50;99.90;;;;;;5035659;28;20113;-71
2022/02/25 11:13:30;;;;;;;13.77;5.70;;;4.50;99.90;;;;;;5044996;28;20028;-71
2022/02/25 11:15:57;;;;;;;13.77;5.50;;;4.50;99.90;;;;;;5038566;28;20029;-72
2022/02/25 11:18:26;;;;;;;15.85;5.47;;;4.40;99.90;;;;;;5032485;28;20094;-72
2022/02/25 11:20:53;;;;;;;16.70;4.80;;;4.50;99.90;;;;;;5036499;28;20108;-72
2022/02/25 11:23:21;;;;;;;14.15;4.63;;;4.60;99.90;;;;;;5030301;28;20038;-70
2022/02/25 11:25:48;;;;;;;14.75;5.15;;;4.60;99.90;;;;;;5034971;28;20029;-70
2022/02/25 11:28:17;;;;;;;14.85;4.70;;;4.60;99.90;;;;;;5037391;28;20029;-73
2022/02/25 11:30:46;;;;;;;13.30;3.88;;;4.90;99.90;;;;;;5038864;28;20029;-71
2022/02/25 11:33:16;;;;;;;14.65;4.30;;;5.40;99.90;;;;;;5036814;28;20052;-70
2022/02/25 11:36:02;;;;;;;14.50;3.50;;;6.00;99.90;;;;;;5038153;28;20030;-70
2022/02/25 11:38:45;;;;;;;8.60;2.90;;;6.90;99.90;;;;;;5039849;28;20090;-70
2022/02/25 11:41:17;;;;;;;8.00;2.22;;;7.70;99.90;;;;;;5019192;28;20036;-69
2022/02/25 11:43:50;;;;;;;13.40;3.22;;;8.60;99.90;;;;;;5037936;28;20060;-71
2022/02/25 11:46:24;;;;;;;9.70;3.03;;;8.70;99.90;;;;;;5036188;28;20112;-71
2022/02/25 11:48:59;;;;;;;13.18;3.42;;;8.70;99.90;;;;;;5035426;28;20464;-71
2022/02/25 11:51:27;;;;;;;13.48;3.38;;;8.40;99.90;;;;;;5032240;28;20372;-70
2022/02/25 11:54:26;;;;;;;9.45;2.60;;;8.10;99.90;;;;;;5032057;28;20021;-70
2022/02/25 11:57:04;;;;;;;8.18;2.75;;;7.80;99.90;;;;;;5033264;28;20154;-70
2022/02/25 11:59:33;;;;;;;18.38;3.53;;;7.60;99.90;;;;;;5036799;28;20486;-71
2022/02/25 12:02:30;;;;;;;9.20;3.83;;;7.30;99.90;;;;;;5035725;28;20099;-70
2022/02/25 12:05:08;;;;;;;7.93;2.28;;;7.00;99.90;;;;;;5038462;28;20029;-71
2022/02/25 12:07:41;;;;;;;9.98;2.38;;;6.70;99.90;;;;;;5033399;28;20037;-71
2022/02/25 12:10:23;;;;;;;8.55;1.67;;;6.50;99.90;;;;;;5036347;28;20249;-71
2022/02/25 12:13:05;;;;;;;7.25;1.60;;;6.40;99.90;;;;;;5035811;28;20021;-72
2022/02/25 12:15:42;;;;;;;8.48;1.30;;;6.40;99.90;;;;;;5032817;28;20041;-71
2022/02/25 12:18:10;;;;;;;6.85;1.50;;;6.20;99.90;;;;;;5036730;28;20048;-71
2022/02/25 12:20:48;;;;;;;7.45;1.40;;;6.00;99.90;;;;;;5034790;28;20021;-73
2022/02/25 12:23:20;;;;;;;8.32;1.70;;;5.90;99.90;;;;;;5038286;28;20029;-72
2022/02/25 12:25:49;;;;;;;5.47;1.58;;;5.80;99.90;;;;;;5015572;28;20048;-71
2022/02/25 12:28:27;;;;;;;8.00;1.75;;;5.70;99.90;;;;;;5035468;28;20483;-71
2022/02/25 12:31:09;;;;;;;7.32;1.33;;;5.50;99.90;;;;;;5031708;28;20108;-71
2022/02/25 12:33:44;;;;;;;9.70;1.30;;;5.30;99.90;;;;;;5025626;28;20086;-72
2022/02/25 12:36:28;;;;;;;4.95;0.95;;;5.10;99.90;;;;;;5039181;28;20037;-72
2022/02/25 12:39:18;;;;;;;5.18;1.00;;;5.00;99.90;;;;;;5032329;28;20116;-72
2022/02/25 12:41:48;;;;;;;3.85;0.90;;;5.00;99.90;;;;;;5018035;28;20092;-71
2022/02/25 12:44:20;;;;;;;5.78;1.40;;;5.00;99.90;;;;;;5035704;28;20088;-72
2022/02/25 12:46:54;;;;;;;11.90;1.88;;;5.00;99.90;;;;;;5035188;28;20037;-72
2022/02/25 12:49:22;;;;;;;6.32;1.40;;;5.00;99.90;;;;;;5034545;28;20033;-71
2022/02/25 12:51:51;;;;;;;11.20;1.17;;;4.90;99.90;;;;;;5031599;28;20021;-71
2022/02/25 12:54:19;;;;;;;6.82;0.93;;;4.90;99.90;;;;;;5036549;28;20467;-72
2022/02/25 12:56:51;;;;;;;3.55;0.90;;;4.80;99.90;;;;;;5032896;28;20030;-73